Terminal Aerodrome Forecast
Issued by NWS Jackson, MS

Home | Current Version | Previous Version | Text Only | Print | Product List | Glossary On
Versions: 1 2 3 4 5 6 7 8 9 10 11 12 13 14 15 16 17
584
FTUS44 KJAN 191220 RRB
TAFHBG
TAF
KHBG 191220Z 1912/2012 15005KT P6SM -SHRA BKN006 OVC020
     FM191700 18011KT P6SM TSRA FEW008 SCT015CB OVC090
     FM192200 20010KT 3SM -TSRA SCT015CB OVC050
     FM200200 20006KT 4SM BR FEW008 SCT035=

USA.gov is the U.S. government's official web portal to all federal, state and local government web resources and services.